Sultan Atasoy — TCYG9 — position and weather

sailwx.info

Track history (hours):
 
Tides and Currents Weather Stations Pressure Air Temp Water Temp Dewpoint Dewpoint Depression Visibility Wind Speed Wind Dir Waves Ship Positions

Sultan Atasoy

Last reported at 2017-Jan-19 07:19 UTC. Time now 2017-Jan-19 10:57 UTC.
Position N 49°42' W 003°38'.

Length 109 m; draft 7.3 m.

Type: Ship. MMSI: 271040963.

Date/timePositionNaut miles runAvg speedWind from/ knotsBaromVisibWave heightAir tempDewpointWater temp
2017-Jan-19 07:19N 49°42' W 003°38'911.5
2017-Jan-19 06:30N 49°47' W 003°26'1212.2
2017-Jan-19 05:33N 49°53' W 003°11'1212.3
2017-Jan-19 04:33N 49°58' W 002°53'1311.9
2017-Jan-19 03:29N 50°02' W 002°35'2110.2
2017-Jan-19 01:27N 50°08' W 002°03'8 8.7
2017-Jan-19 00:33N 50°10' W 001°52'8 8.4
2017-Jan-18 23:34N 50°13' W 001°39'9 9.0
2017-Jan-18 22:33N 50°15' W 001°26'4011.8
2017-Jan-18 19:11N 50°26' W 000°26'812.6
2017-Jan-18 18:33N 50°29' W 000°14'1212.4
2017-Jan-18 17:33N 50°32' E 000°05'1212.0
2017-Jan-18 16:33N 50°36' E 000°23'1111.1
2017-Jan-18 15:33N 50°41' E 000°39'1110.5
2017-Jan-18 14:32N 50°47' E 000°53'1010.3
2017-Jan-18 13:31N 50°53' E 001°06'1111.2
2017-Jan-18 12:33N 50°60' E 001°19'1313.3
2017-Jan-18 11:34N 51°08' E 001°35'1313.3
2017-Jan-18 10:34N 51°18' E 001°50'1211.9
2017-Jan-18 09:33N 51°28' E 002°01'1111.0
2017-Jan-18 08:32N 51°36' E 002°12'11011.0
2017-Jan-17 22:32N 53°01' E 004°07'1010.5
2017-Jan-17 21:33N 53°08' E 004°19'10 9.8
2017-Jan-17 20:31N 53°17' E 004°29'21 9.4
2017-Jan-17 18:13N 53°31' E 004°55'811.6
2017-Jan-17 17:33N 53°34' E 005°07'1212.0
2017-Jan-17 16:33N 53°38' E 005°26'1211.8
2017-Jan-17 15:33N 53°42' E 005°45'8610.7
2017-Jan-17 07:28N 54°01' E 008°08'1212.9
2017-Jan-17 06:33N 53°59' E 008°28'1312.8
2017-Jan-17 05:33N 53°51' E 008°45'1010.2
2017-Jan-17 04:33N 53°52' E 009°02'4 4.1
2017-Jan-17 03:33N 53°54' E 009°09'3 3.1
2017-Jan-17 02:33N 53°56' E 009°12'8 7.9
2017-Jan-17 01:33N 54°03' E 009°18'56 4.3
2017-Jan-16 12:33N 54°35' E 010°39'1111.3
2017-Jan-16 11:33N 54°36' E 010°58'1111.3
2017-Jan-16 10:33N 54°34' E 011°17'1211.5
2017-Jan-16 09:33N 54°29' E 011°35'1211.3
2017-Jan-16 08:32N 54°24' E 011°53'17 3.4
2017-Jan-16 03:34N 54°09' E 012°07'0 0.0
2017-Jan-15 19:25N 54°09' E 012°07'0 0.0
2017-Jan-15 15:16N 54°09' E 012°07'0 0.0
2017-Jan-15 10:16N 54°09' E 012°07'0 0.0
2017-Jan-15 04:16N 54°09' E 012°07'0 0.0
2017-Jan-15 01:31N 54°09' E 012°07'0 0.0
2017-Jan-14 16:31N 54°09' E 012°07'0 0.0
2017-Jan-14 13:16N 54°09' E 012°07'0 0.0
2017-Jan-14 08:28N 54°09' E 012°07'0 0.0
2017-Jan-13 21:31N 54°09' E 012°07'1 0.1
2017-Jan-13 10:29N 54°10' E 012°06'5 1.0
2017-Jan-13 05:31N 54°13' E 011°58'0 0.0
2017-Jan-13 02:07N 54°13' E 011°58'0 0.0
2017-Jan-12 22:13N 54°13' E 011°59'0 0.0
2017-Jan-12 16:31N 54°13' E 011°59'0 0.0
2017-Jan-12 15:31N 54°13' E 011°59'0 0.0
2017-Jan-12 14:31N 54°13' E 011°59'0 0.0
2017-Jan-12 05:16N 54°13' E 011°59'0 0.0
2017-Jan-11 23:31N 54°13' E 011°59'0 0.0
2017-Jan-11 21:31N 54°13' E 011°59'0 0.0
2017-Jan-11 20:31N 54°13' E 011°59'0 0.0
2017-Jan-11 18:16N 54°13' E 011°59'0 0.0
2017-Jan-11 15:22N 54°13' E 011°59'0 0.1
2017-Jan-11 14:28N 54°13' E 011°59'0 0.0
2017-Jan-11 13:28N 54°13' E 011°59'0 0.0
2017-Jan-11 12:31N 54°13' E 011°58'0 0.1
2017-Jan-11 11:28N 54°13' E 011°58'0 0.0
2017-Jan-11 10:31N 54°13' E 011°58'0 0.0
2017-Jan-11 09:31N 54°13' E 011°58'0 0.0
2017-Jan-11 08:31N 54°13' E 011°58'0 0.0
2017-Jan-11 07:28N 54°13' E 011°58'0 0.0
2017-Jan-11 06:16N 54°13' E 011°58'0 0.0
2017-Jan-11 05:31N 54°13' E 011°58'0 0.0
2017-Jan-11 04:31N 54°13' E 011°58'0 0.0
2017-Jan-11 03:28N 54°13' E 011°58'0 0.0
2017-Jan-11 01:25N 54°13' E 011°58'0 0.0
2017-Jan-11 00:31N 54°13' E 011°58'0 0.0
2017-Jan-10 23:25N 54°13' E 011°58'0 0.0
2017-Jan-10 22:28N 54°13' E 011°58'0 0.0
2017-Jan-10 21:31N 54°13' E 011°58'0 0.0
2017-Jan-10 20:19N 54°13' E 011°58'0 0.0
2017-Jan-10 19:07N 54°13' E 011°58'0 0.0
2017-Jan-10 16:31N 54°13' E 011°58'0 0.0
2017-Jan-10 14:28N 54°13' E 011°58'0 0.0
2017-Jan-10 12:25N 54°13' E 011°58'0 0.0
2017-Jan-10 11:28N 54°13' E 011°58'0 0.0
2017-Jan-10 10:31N 54°13' E 011°58'0 0.0
2017-Jan-10 09:28N 54°13' E 011°58'0 0.0
2017-Jan-10 08:28N 54°13' E 011°58'0 0.0
2017-Jan-10 06:22N 54°13' E 011°58'0 0.0
2017-Jan-10 05:28N 54°13' E 011°58'0 0.0
2017-Jan-10 04:16N 54°13' E 011°58'0 0.0
2017-Jan-10 03:31N 54°13' E 011°58'0 0.0
2017-Jan-10 01:28N 54°13' E 011°58'0 0.0
2017-Jan-10 00:28N 54°13' E 011°58'0 0.0
2017-Jan-09 23:25N 54°13' E 011°58'0 0.0
2017-Jan-09 21:31N 54°13' E 011°58'0 0.0
2017-Jan-09 20:28N 54°13' E 011°58'0 0.0
2017-Jan-09 19:31N 54°13' E 011°58'0 0.0
2017-Jan-09 17:28N 54°13' E 011°58'0 0.0
2017-Jan-09 15:22N 54°13' E 011°58'0 0.0
2017-Jan-09 14:31N 54°13' E 011°58'0 0.0
2017-Jan-09 13:31N 54°13' E 011°59'0 0.0
2017-Jan-09 12:31N 54°13' E 011°59'0 0.0
2017-Jan-09 11:31N 54°13' E 011°58'0 0.0
2017-Jan-09 10:28N 54°13' E 011°59'0 0.0
2017-Jan-09 09:22N 54°13' E 011°58'0 0.0
2017-Jan-09 07:31N 54°13' E 011°59'  
Track history (hours):
 
Tides and Currents Weather Stations Pressure Air Temp Water Temp Dewpoint Dewpoint Depression Visibility Wind Speed Wind Dir Waves Ship Positions

Sultan Atasoy

Last reported at 2017-Jan-19 07:19 UTC. Time now 2017-Jan-19 10:57 UTC.
Position N 49°42' W 003°38'.

Length 109 m; draft 7.3 m.

Type: Ship. MMSI: 271040963.

Date/timePositionNaut miles runAvg speedWind from/ knotsBaromVisibWave heightAir tempDewpointWater temp
2017-Jan-19 07:19N 49°42' W 003°38'911.5
2017-Jan-19 06:30N 49°47' W 003°26'1212.2
2017-Jan-19 05:33N 49°53' W 003°11'1212.3
2017-Jan-19 04:33N 49°58' W 002°53'1311.9
2017-Jan-19 03:29N 50°02' W 002°35'2110.2
2017-Jan-19 01:27N 50°08' W 002°03'8 8.7
2017-Jan-19 00:33N 50°10' W 001°52'8 8.4
2017-Jan-18 23:34N 50°13' W 001°39'9 9.0
2017-Jan-18 22:33N 50°15' W 001°26'4011.8
2017-Jan-18 19:11N 50°26' W 000°26'812.6
2017-Jan-18 18:33N 50°29' W 000°14'1212.4
2017-Jan-18 17:33N 50°32' E 000°05'1212.0
2017-Jan-18 16:33N 50°36' E 000°23'1111.1
2017-Jan-18 15:33N 50°41' E 000°39'1110.5
2017-Jan-18 14:32N 50°47' E 000°53'1010.3
2017-Jan-18 13:31N 50°53' E 001°06'1111.2
2017-Jan-18 12:33N 50°60' E 001°19'1313.3
2017-Jan-18 11:34N 51°08' E 001°35'1313.3
2017-Jan-18 10:34N 51°18' E 001°50'1211.9
2017-Jan-18 09:33N 51°28' E 002°01'1111.0
2017-Jan-18 08:32N 51°36' E 002°12'11011.0
2017-Jan-17 22:32N 53°01' E 004°07'1010.5
2017-Jan-17 21:33N 53°08' E 004°19'10 9.8
2017-Jan-17 20:31N 53°17' E 004°29'21 9.4
2017-Jan-17 18:13N 53°31' E 004°55'811.6
2017-Jan-17 17:33N 53°34' E 005°07'1212.0
2017-Jan-17 16:33N 53°38' E 005°26'1211.8
2017-Jan-17 15:33N 53°42' E 005°45'8610.7
2017-Jan-17 07:28N 54°01' E 008°08'1212.9
2017-Jan-17 06:33N 53°59' E 008°28'1312.8
2017-Jan-17 05:33N 53°51' E 008°45'1010.2
2017-Jan-17 04:33N 53°52' E 009°02'4 4.1
2017-Jan-17 03:33N 53°54' E 009°09'3 3.1
2017-Jan-17 02:33N 53°56' E 009°12'8 7.9
2017-Jan-17 01:33N 54°03' E 009°18'56 4.3
2017-Jan-16 12:33N 54°35' E 010°39'1111.3
2017-Jan-16 11:33N 54°36' E 010°58'1111.3
2017-Jan-16 10:33N 54°34' E 011°17'1211.5
2017-Jan-16 09:33N 54°29' E 011°35'1211.3
2017-Jan-16 08:32N 54°24' E 011°53'17 3.4
2017-Jan-16 03:34N 54°09' E 012°07'0 0.0
2017-Jan-15 19:25N 54°09' E 012°07'0 0.0
2017-Jan-15 15:16N 54°09' E 012°07'0 0.0
2017-Jan-15 10:16N 54°09' E 012°07'0 0.0
2017-Jan-15 04:16N 54°09' E 012°07'0 0.0
2017-Jan-15 01:31N 54°09' E 012°07'0 0.0
2017-Jan-14 16:31N 54°09' E 012°07'0 0.0
2017-Jan-14 13:16N 54°09' E 012°07'0 0.0
2017-Jan-14 08:28N 54°09' E 012°07'0 0.0
2017-Jan-13 21:31N 54°09' E 012°07'1 0.1
2017-Jan-13 10:29N 54°10' E 012°06'5 1.0
2017-Jan-13 05:31N 54°13' E 011°58'0 0.0
2017-Jan-13 02:07N 54°13' E 011°58'0 0.0
2017-Jan-12 22:13N 54°13' E 011°59'0 0.0
2017-Jan-12 16:31N 54°13' E 011°59'0 0.0
2017-Jan-12 15:31N 54°13' E 011°59'0 0.0
2017-Jan-12 14:31N 54°13' E 011°59'0 0.0
2017-Jan-12 05:16N 54°13' E 011°59'0 0.0
2017-Jan-11 23:31N 54°13' E 011°59'0 0.0
2017-Jan-11 21:31N 54°13' E 011°59'0 0.0
2017-Jan-11 20:31N 54°13' E 011°59'0 0.0
2017-Jan-11 18:16N 54°13' E 011°59'0 0.0
2017-Jan-11 15:22N 54°13' E 011°59'0 0.1
2017-Jan-11 14:28N 54°13' E 011°59'0 0.0
2017-Jan-11 13:28N 54°13' E 011°59'0 0.0
2017-Jan-11 12:31N 54°13' E 011°58'0 0.1
2017-Jan-11 11:28N 54°13' E 011°58'0 0.0
2017-Jan-11 10:31N 54°13' E 011°58'0 0.0
2017-Jan-11 09:31N 54°13' E 011°58'0 0.0
2017-Jan-11 08:31N 54°13' E 011°58'0 0.0
2017-Jan-11 07:28N 54°13' E 011°58'0 0.0
2017-Jan-11 06:16N 54°13' E 011°58'0 0.0
2017-Jan-11 05:31N 54°13' E 011°58'0 0.0
2017-Jan-11 04:31N 54°13' E 011°58'0 0.0
2017-Jan-11 03:28N 54°13' E 011°58'0 0.0
2017-Jan-11 01:25N 54°13' E 011°58'0 0.0
2017-Jan-11 00:31N 54°13' E 011°58'0 0.0
2017-Jan-10 23:25N 54°13' E 011°58'0 0.0
2017-Jan-10 22:28N 54°13' E 011°58'0 0.0
2017-Jan-10 21:31N 54°13' E 011°58'0 0.0
2017-Jan-10 20:19N 54°13' E 011°58'0 0.0
2017-Jan-10 19:07N 54°13' E 011°58'0 0.0
2017-Jan-10 16:31N 54°13' E 011°58'0 0.0
2017-Jan-10 14:28N 54°13' E 011°58'0 0.0
2017-Jan-10 12:25N 54°13' E 011°58'0 0.0
2017-Jan-10 11:28N 54°13' E 011°58'0 0.0
2017-Jan-10 10:31N 54°13' E 011°58'0 0.0
2017-Jan-10 09:28N 54°13' E 011°58'0 0.0
2017-Jan-10 08:28N 54°13' E 011°58'0 0.0
2017-Jan-10 06:22N 54°13' E 011°58'0 0.0
2017-Jan-10 05:28N 54°13' E 011°58'0 0.0
2017-Jan-10 04:16N 54°13' E 011°58'0 0.0
2017-Jan-10 03:31N 54°13' E 011°58'0 0.0
2017-Jan-10 01:28N 54°13' E 011°58'0 0.0
2017-Jan-10 00:28N 54°13' E 011°58'0 0.0
2017-Jan-09 23:25N 54°13' E 011°58'0 0.0
2017-Jan-09 21:31N 54°13' E 011°58'0 0.0
2017-Jan-09 20:28N 54°13' E 011°58'0 0.0
2017-Jan-09 19:31N 54°13' E 011°58'0 0.0
2017-Jan-09 17:28N 54°13' E 011°58'0 0.0
2017-Jan-09 15:22N 54°13' E 011°58'0 0.0
2017-Jan-09 14:31N 54°13' E 011°58'0 0.0
2017-Jan-09 13:31N 54°13' E 011°59'0 0.0
2017-Jan-09 12:31N 54°13' E 011°59'0 0.0
2017-Jan-09 11:31N 54°13' E 011°58'0 0.0
2017-Jan-09 10:28N 54°13' E 011°59'0 0.0
2017-Jan-09 09:22N 54°13' E 011°58'0 0.0
2017-Jan-09 07:31N 54°13' E 011°59'  

Dump ship's entire track history